sensor_id;sensor_type;location;lat;lon;timestamp;P1;durP1;ratioP1;P2;durP2;ratioP2
53483;SDS011;75581;50.088;19.966;2024-03-23T00:55:00;69.00;;;39.50;;
53483;SDS011;75581;50.088;19.966;2024-03-23T00:57:27;74.50;;;40.30;;
53483;SDS011;75581;50.088;19.966;2024-03-23T00:59:55;65.20;;;38.10;;
53483;SDS011;75581;50.088;19.966;2024-03-23T01:02:23;67.00;;;39.50;;
53483;SDS011;75581;50.088;19.966;2024-03-23T01:04:51;71.80;;;39.40;;
53483;SDS011;75581;50.088;19.966;2024-03-23T01:07:18;72.80;;;40.60;;
53483;SDS011;75581;50.088;19.966;2024-03-23T01:09:46;67.80;;;39.30;;
53483;SDS011;75581;50.088;19.966;2024-03-23T01:12:14;72.20;;;38.80;;
53483;SDS011;75581;50.088;19.966;2024-03-23T01:14:42;65.00;;;37.70;;
53483;SDS011;75581;50.088;19.966;2024-03-23T01:17:09;78.80;;;40.50;;
53483;SDS011;75581;50.088;19.966;2024-03-23T01:19:37;66.20;;;37.90;;
53483;SDS011;75581;50.088;19.966;2024-03-23T01:22:06;61.70;;;37.00;;
53483;SDS011;75581;50.088;19.966;2024-03-23T01:24:34;65.50;;;38.60;;
53483;SDS011;75581;50.088;19.966;2024-03-23T01:27:02;65.90;;;37.90;;
53483;SDS011;75581;50.088;19.966;2024-03-23T01:29:30;72.50;;;39.80;;
53483;SDS011;75581;50.088;19.966;2024-03-23T01:31:58;67.00;;;37.10;;
53483;SDS011;75581;50.088;19.966;2024-03-23T01:34:25;66.10;;;38.50;;
53483;SDS011;75581;50.088;19.966;2024-03-23T01:36:53;59.80;;;35.30;;
53483;SDS011;75581;50.088;19.966;2024-03-23T01:39:21;66.30;;;36.80;;
53483;SDS011;75581;50.088;19.966;2024-03-23T01:41:49;64.60;;;37.00;;
53483;SDS011;75581;50.088;19.966;2024-03-23T01:44:17;69.00;;;38.70;;
53483;SDS011;75581;50.088;19.966;2024-03-23T01:46:44;63.10;;;36.90;;
53483;SDS011;75581;50.088;19.966;2024-03-23T01:49:12;67.90;;;39.10;;
53483;SDS011;75581;50.088;19.966;2024-03-23T01:51:40;72.80;;;40.10;;
53483;SDS011;75581;50.088;19.966;2024-03-23T01:54:10;69.50;;;39.20;;
53483;SDS011;75581;50.088;19.966;2024-03-23T01:56:38;73.00;;;41.00;;
53483;SDS011;75581;50.088;19.966;2024-03-23T01:59:06;71.80;;;41.20;;
53483;SDS011;75581;50.088;19.966;2024-03-23T02:01:37;71.90;;;39.30;;
53483;SDS011;75581;50.088;19.966;2024-03-23T02:04:04;69.20;;;38.60;;
53483;SDS011;75581;50.088;19.966;2024-03-23T02:06:32;75.30;;;40.30;;
53483;SDS011;75581;50.088;19.966;2024-03-23T02:09:00;73.00;;;39.20;;
53483;SDS011;75581;50.088;19.966;2024-03-23T02:11:28;68.90;;;39.00;;
53483;SDS011;75581;50.088;19.966;2024-03-23T02:13:56;73.90;;;40.40;;
53483;SDS011;75581;50.088;19.966;2024-03-23T02:16:23;65.40;;;38.20;;
53483;SDS011;75581;50.088;19.966;2024-03-23T02:18:51;68.30;;;36.90;;
53483;SDS011;75581;50.088;19.966;2024-03-23T02:21:19;63.00;;;36.30;;
53483;SDS011;75581;50.088;19.966;2024-03-23T02:23:46;62.70;;;36.50;;
53483;SDS011;75581;50.088;19.966;2024-03-23T02:26:14;73.20;;;37.30;;
53483;SDS011;75581;50.088;19.966;2024-03-23T02:28:42;66.10;;;37.60;;
53483;SDS011;75581;50.088;19.966;2024-03-23T02:31:10;67.50;;;38.60;;
53483;SDS011;75581;50.088;19.966;2024-03-23T02:33:38;72.30;;;38.70;;
53483;SDS011;75581;50.088;19.966;2024-03-23T02:36:05;69.90;;;36.80;;
53483;SDS011;75581;50.088;19.966;2024-03-23T02:38:34;68.70;;;38.20;;
53483;SDS011;75581;50.088;19.966;2024-03-23T02:41:04;70.20;;;38.50;;
53483;SDS011;75581;50.088;19.966;2024-03-23T02:43:32;68.60;;;39.30;;
53483;SDS011;75581;50.088;19.966;2024-03-23T02:46:00;62.70;;;35.50;;
53483;SDS011;75581;50.088;19.966;2024-03-23T02:48:28;60.60;;;35.90;;
53483;SDS011;75581;50.088;19.966;2024-03-23T02:50:55;66.00;;;37.00;;
53483;SDS011;75581;50.088;19.966;2024-03-23T02:53:23;64.20;;;36.70;;
53483;SDS011;75581;50.088;19.966;2024-03-23T02:55:51;62.10;;;36.50;;
53483;SDS011;75581;50.088;19.966;2024-03-23T02:58:19;63.80;;;36.40;;
53483;SDS011;75581;50.088;19.966;2024-03-23T03:00:46;61.10;;;35.90;;
53483;SDS011;75581;50.088;19.966;2024-03-23T03:03:14;71.40;;;38.30;;
53483;SDS011;75581;50.088;19.966;2024-03-23T03:05:42;62.70;;;37.00;;
53483;SDS011;75581;50.088;19.966;2024-03-23T03:08:10;66.90;;;37.20;;
53483;SDS011;75581;50.088;19.966;2024-03-23T03:10:37;69.80;;;38.80;;
53483;SDS011;75581;50.088;19.966;2024-03-23T03:13:05;64.60;;;36.70;;
53483;SDS011;75581;50.088;19.966;2024-03-23T03:15:33;61.90;;;36.90;;
53483;SDS011;75581;50.088;19.966;2024-03-23T03:18:01;64.40;;;36.70;;
53483;SDS011;75581;50.088;19.966;2024-03-23T03:20:28;61.30;;;35.10;;
53483;SDS011;75581;50.088;19.966;2024-03-23T03:22:56;56.50;;;33.40;;
53483;SDS011;75581;50.088;19.966;2024-03-23T03:25:24;60.70;;;33.90;;
53483;SDS011;75581;50.088;19.966;2024-03-23T03:27:51;64.70;;;35.20;;
53483;SDS011;75581;50.088;19.966;2024-03-23T03:30:19;65.50;;;35.80;;
53483;SDS011;75581;50.088;19.966;2024-03-23T03:32:46;62.30;;;35.60;;
53483;SDS011;75581;50.088;19.966;2024-03-23T03:35:14;68.60;;;36.60;;
53483;SDS011;75581;50.088;19.966;2024-03-23T03:37:42;65.00;;;37.20;;
53483;SDS011;75581;50.088;19.966;2024-03-23T03:40:10;61.00;;;35.40;;
53483;SDS011;75581;50.088;19.966;2024-03-23T03:42:38;61.80;;;36.00;;
53483;SDS011;75581;50.088;19.966;2024-03-23T03:45:06;62.40;;;34.60;;
53483;SDS011;75581;50.088;19.966;2024-03-23T03:47:34;60.90;;;34.50;;
53483;SDS011;75581;50.088;19.966;2024-03-23T03:50:02;62.60;;;35.60;;
53483;SDS011;75581;50.088;19.966;2024-03-23T03:52:29;60.70;;;35.20;;
53483;SDS011;75581;50.088;19.966;2024-03-23T03:55:01;60.50;;;34.20;;
53483;SDS011;75581;50.088;19.966;2024-03-23T03:57:29;54.70;;;32.40;;
53483;SDS011;75581;50.088;19.966;2024-03-23T03:59:57;59.00;;;34.50;;
53483;SDS011;75581;50.088;19.966;2024-03-23T04:02:25;58.90;;;32.20;;
53483;SDS011;75581;50.088;19.966;2024-03-23T04:04:52;57.50;;;33.40;;
53483;SDS011;75581;50.088;19.966;2024-03-23T04:07:20;63.20;;;34.00;;
53483;SDS011;75581;50.088;19.966;2024-03-23T04:09:50;63.50;;;34.20;;
53483;SDS011;75581;50.088;19.966;2024-03-23T04:12:17;54.90;;;33.20;;
53483;SDS011;75581;50.088;19.966;2024-03-23T04:14:45;62.60;;;36.00;;
53483;SDS011;75581;50.088;19.966;2024-03-23T04:17:13;66.30;;;36.70;;
53483;SDS011;75581;50.088;19.966;2024-03-23T04:19:41;66.70;;;36.00;;
53483;SDS011;75581;50.088;19.966;2024-03-23T04:22:08;59.40;;;33.00;;
53483;SDS011;75581;50.088;19.966;2024-03-23T04:24:36;66.50;;;34.80;;
53483;SDS011;75581;50.088;19.966;2024-03-23T04:27:04;56.00;;;33.90;;
53483;SDS011;75581;50.088;19.966;2024-03-23T04:29:32;63.40;;;34.10;;
53483;SDS011;75581;50.088;19.966;2024-03-23T04:32:00;57.10;;;33.50;;
53483;SDS011;75581;50.088;19.966;2024-03-23T04:34:28;62.20;;;34.20;;
53483;SDS011;75581;50.088;19.966;2024-03-23T04:36:56;61.00;;;33.70;;
53483;SDS011;75581;50.088;19.966;2024-03-23T04:39:24;61.50;;;34.00;;
53483;SDS011;75581;50.088;19.966;2024-03-23T04:41:52;64.20;;;35.20;;
53483;SDS011;75581;50.088;19.966;2024-03-23T04:44:19;64.10;;;35.70;;
53483;SDS011;75581;50.088;19.966;2024-03-23T04:46:47;60.20;;;33.20;;
53483;SDS011;75581;50.088;19.966;2024-03-23T04:49:15;61.20;;;33.80;;
53483;SDS011;75581;50.088;19.966;2024-03-23T04:51:42;61.50;;;33.90;;
53483;SDS011;75581;50.088;19.966;2024-03-23T04:54:13;62.00;;;34.40;;
53483;SDS011;75581;50.088;19.966;2024-03-23T04:56:41;63.80;;;33.90;;
53483;SDS011;75581;50.088;19.966;2024-03-23T04:59:09;62.30;;;33.90;;
53483;SDS011;75581;50.088;19.966;2024-03-23T05:01:37;59.40;;;32.90;;
53483;SDS011;75581;50.088;19.966;2024-03-23T05:04:09;63.70;;;35.60;;
53483;SDS011;75581;50.088;19.966;2024-03-23T05:06:37;57.70;;;32.90;;
53483;SDS011;75581;50.088;19.966;2024-03-23T05:09:04;56.90;;;32.40;;
53483;SDS011;75581;50.088;19.966;2024-03-23T05:11:38;55.30;;;32.60;;
53483;SDS011;75581;50.088;19.966;2024-03-23T05:14:06;59.00;;;32.50;;
53483;SDS011;75581;50.088;19.966;2024-03-23T05:16:34;54.30;;;30.80;;
53483;SDS011;75581;50.088;19.966;2024-03-23T05:19:02;60.60;;;32.30;;
53483;SDS011;75581;50.088;19.966;2024-03-23T05:21:30;56.80;;;32.70;;
53483;SDS011;75581;50.088;19.966;2024-03-23T05:23:57;60.30;;;33.90;;
53483;SDS011;75581;50.088;19.966;2024-03-23T05:26:25;55.80;;;31.80;;
53483;SDS011;75581;50.088;19.966;2024-03-23T05:28:53;55.10;;;32.80;;
53483;SDS011;75581;50.088;19.966;2024-03-23T05:31:24;52.20;;;31.00;;
53483;SDS011;75581;50.088;19.966;2024-03-23T05:33:52;56.40;;;32.50;;
53483;SDS011;75581;50.088;19.966;2024-03-23T05:36:20;54.30;;;32.30;;
53483;SDS011;75581;50.088;19.966;2024-03-23T05:38:48;51.40;;;31.80;;
53483;SDS011;75581;50.088;19.966;2024-03-23T05:41:15;57.30;;;32.90;;
53483;SDS011;75581;50.088;19.966;2024-03-23T05:43:43;55.50;;;33.90;;
53483;SDS011;75581;50.088;19.966;2024-03-23T05:46:11;58.40;;;34.40;;
53483;SDS011;75581;50.088;19.966;2024-03-23T05:48:39;61.40;;;34.60;;
53483;SDS011;75581;50.088;19.966;2024-03-23T05:51:06;57.90;;;32.00;;
53483;SDS011;75581;50.088;19.966;2024-03-23T05:53:35;52.70;;;30.70;;
53483;SDS011;75581;50.088;19.966;2024-03-23T05:56:03;57.60;;;33.20;;
53483;SDS011;75581;50.088;19.966;2024-03-23T05:58:32;56.80;;;31.40;;
53483;SDS011;75581;50.088;19.966;2024-03-23T06:01:00;56.00;;;30.70;;
53483;SDS011;75581;50.088;19.966;2024-03-23T06:03:29;57.10;;;32.80;;
53483;SDS011;75581;50.088;19.966;2024-03-23T06:05:57;58.40;;;32.80;;
53483;SDS011;75581;50.088;19.966;2024-03-23T06:08:25;56.00;;;33.20;;
53483;SDS011;75581;50.088;19.966;2024-03-23T06:10:52;52.10;;;31.40;;
53483;SDS011;75581;50.088;19.966;2024-03-23T06:13:20;58.50;;;33.40;;
53483;SDS011;75581;50.088;19.966;2024-03-23T06:15:52;57.40;;;33.10;;
53483;SDS011;75581;50.088;19.966;2024-03-23T06:18:19;54.10;;;32.60;;
53483;SDS011;75581;50.088;19.966;2024-03-23T06:20:47;55.20;;;32.40;;
53483;SDS011;75581;50.088;19.966;2024-03-23T06:23:15;54.40;;;32.60;;
53483;SDS011;75581;50.088;19.966;2024-03-23T06:25:44;61.00;;;35.50;;
53483;SDS011;75581;50.088;19.966;2024-03-23T06:28:11;63.40;;;34.30;;
53483;SDS011;75581;50.088;19.966;2024-03-23T06:30:39;56.00;;;33.30;;
53483;SDS011;75581;50.088;19.966;2024-03-23T06:33:07;64.40;;;37.00;;
53483;SDS011;75581;50.088;19.966;2024-03-23T06:35:35;68.30;;;37.80;;
53483;SDS011;75581;50.088;19.966;2024-03-23T06:38:03;60.20;;;34.60;;
53483;SDS011;75581;50.088;19.966;2024-03-23T06:40:30;63.60;;;35.30;;
53483;SDS011;75581;50.088;19.966;2024-03-23T06:42:58;67.60;;;39.00;;
53483;SDS011;75581;50.088;19.966;2024-03-23T06:45:26;69.40;;;38.90;;
53483;SDS011;75581;50.088;19.966;2024-03-23T06:47:54;66.80;;;37.80;;
53483;SDS011;75581;50.088;19.966;2024-03-23T06:50:22;71.00;;;38.70;;
53483;SDS011;75581;50.088;19.966;2024-03-23T06:52:50;65.40;;;37.00;;
53483;SDS011;75581;50.088;19.966;2024-03-23T06:55:18;70.40;;;38.80;;
53483;SDS011;75581;50.088;19.966;2024-03-23T06:57:45;73.00;;;40.50;;
53483;SDS011;75581;50.088;19.966;2024-03-23T07:00:14;71.40;;;39.80;;
53483;SDS011;75581;50.088;19.966;2024-03-23T07:02:43;72.00;;;39.60;;
53483;SDS011;75581;50.088;19.966;2024-03-23T07:05:11;68.00;;;37.90;;
53483;SDS011;75581;50.088;19.966;2024-03-23T07:07:39;68.30;;;37.90;;
53483;SDS011;75581;50.088;19.966;2024-03-23T07:10:07;65.90;;;38.10;;
53483;SDS011;75581;50.088;19.966;2024-03-23T07:12:35;63.20;;;36.80;;
53483;SDS011;75581;50.088;19.966;2024-03-23T07:15:03;61.60;;;36.10;;
53483;SDS011;75581;50.088;19.966;2024-03-23T07:17:31;61.70;;;35.90;;
53483;SDS011;75581;50.088;19.966;2024-03-23T07:20:00;60.30;;;34.70;;
53483;SDS011;75581;50.088;19.966;2024-03-23T07:22:30;62.80;;;34.50;;
53483;SDS011;75581;50.088;19.966;2024-03-23T07:25:00;61.70;;;35.50;;
53483;SDS011;75581;50.088;19.966;2024-03-23T07:27:28;57.70;;;34.40;;
53483;SDS011;75581;50.088;19.966;2024-03-23T07:29:56;60.20;;;35.20;;
53483;SDS011;75581;50.088;19.966;2024-03-23T07:32:23;60.60;;;35.60;;
53483;SDS011;75581;50.088;19.966;2024-03-23T07:34:51;60.30;;;34.40;;
53483;SDS011;75581;50.088;19.966;2024-03-23T07:37:19;61.30;;;34.30;;
53483;SDS011;75581;50.088;19.966;2024-03-23T07:39:47;58.00;;;34.40;;
53483;SDS011;75581;50.088;19.966;2024-03-23T07:42:15;63.60;;;35.30;;
53483;SDS011;75581;50.088;19.966;2024-03-23T07:44:42;63.90;;;36.10;;
53483;SDS011;75581;50.088;19.966;2024-03-23T07:47:10;65.70;;;37.50;;
53483;SDS011;75581;50.088;19.966;2024-03-23T07:49:39;61.20;;;37.20;;
53483;SDS011;75581;50.088;19.966;2024-03-23T07:52:07;73.10;;;41.60;;
53483;SDS011;75581;50.088;19.966;2024-03-23T07:54:35;68.70;;;39.10;;
53483;SDS011;75581;50.088;19.966;2024-03-23T07:57:03;62.60;;;37.70;;
53483;SDS011;75581;50.088;19.966;2024-03-23T07:59:31;64.30;;;38.70;;
53483;SDS011;75581;50.088;19.966;2024-03-23T08:02:01;65.00;;;40.80;;
53483;SDS011;75581;50.088;19.966;2024-03-23T08:04:28;60.40;;;36.90;;
53483;SDS011;75581;50.088;19.966;2024-03-23T08:06:56;63.50;;;36.70;;
53483;SDS011;75581;50.088;19.966;2024-03-23T08:09:23;62.30;;;37.00;;
53483;SDS011;75581;50.088;19.966;2024-03-23T08:11:51;56.30;;;33.10;;
53483;SDS011;75581;50.088;19.966;2024-03-23T08:14:19;52.30;;;30.50;;
53483;SDS011;75581;50.088;19.966;2024-03-23T08:16:47;53.70;;;30.80;;
53483;SDS011;75581;50.088;19.966;2024-03-23T08:19:16;53.30;;;30.90;;
53483;SDS011;75581;50.088;19.966;2024-03-23T08:21:44;57.10;;;32.90;;
53483;SDS011;75581;50.088;19.966;2024-03-23T08:24:12;66.90;;;33.80;;
53483;SDS011;75581;50.088;19.966;2024-03-23T08:26:40;56.40;;;32.10;;
53483;SDS011;75581;50.088;19.966;2024-03-23T08:29:07;53.40;;;29.30;;
53483;SDS011;75581;50.088;19.966;2024-03-23T08:31:35;47.90;;;27.80;;
53483;SDS011;75581;50.088;19.966;2024-03-23T08:34:03;50.20;;;27.70;;
53483;SDS011;75581;50.088;19.966;2024-03-23T08:36:31;48.70;;;25.10;;
53483;SDS011;75581;50.088;19.966;2024-03-23T08:38:59;47.20;;;25.90;;
53483;SDS011;75581;50.088;19.966;2024-03-23T08:41:27;45.30;;;25.00;;
53483;SDS011;75581;50.088;19.966;2024-03-23T08:43:55;46.00;;;26.30;;
53483;SDS011;75581;50.088;19.966;2024-03-23T08:46:23;48.70;;;27.60;;
53483;SDS011;75581;50.088;19.966;2024-03-23T08:48:50;47.50;;;27.50;;
53483;SDS011;75581;50.088;19.966;2024-03-23T08:51:20;50.70;;;26.20;;
53483;SDS011;75581;50.088;19.966;2024-03-23T08:53:48;44.50;;;24.50;;
53483;SDS011;75581;50.088;19.966;2024-03-23T08:56:15;49.80;;;25.40;;
53483;SDS011;75581;50.088;19.966;2024-03-23T08:58:43;40.60;;;23.50;;
53483;SDS011;75581;50.088;19.966;2024-03-23T09:01:12;34.00;;;21.10;;
53483;SDS011;75581;50.088;19.966;2024-03-23T09:03:40;40.30;;;22.50;;
53483;SDS011;75581;50.088;19.966;2024-03-23T09:06:10;37.00;;;19.40;;
53483;SDS011;75581;50.088;19.966;2024-03-23T09:08:39;33.90;;;18.50;;
53483;SDS011;75581;50.088;19.966;2024-03-23T09:11:08;36.20;;;19.60;;
53483;SDS011;75581;50.088;19.966;2024-03-23T09:13:37;36.60;;;18.30;;
53483;SDS011;75581;50.088;19.966;2024-03-23T09:16:06;27.50;;;16.40;;
53483;SDS011;75581;50.088;19.966;2024-03-23T09:18:36;34.70;;;18.50;;
53483;SDS011;75581;50.088;19.966;2024-03-23T09:21:04;29.70;;;16.40;;
53483;SDS011;75581;50.088;19.966;2024-03-23T09:23:38;35.70;;;17.00;;
53483;SDS011;75581;50.088;19.966;2024-03-23T09:26:06;32.90;;;16.80;;
53483;SDS011;75581;50.088;19.966;2024-03-23T09:28:36;34.30;;;16.30;;
53483;SDS011;75581;50.088;19.966;2024-03-23T09:31:05;25.20;;;14.60;;
53483;SDS011;75581;50.088;19.966;2024-03-23T09:33:42;24.40;;;14.90;;
53483;SDS011;75581;50.088;19.966;2024-03-23T09:36:10;26.30;;;15.40;;
53483;SDS011;75581;50.088;19.966;2024-03-23T09:38:38;25.50;;;15.80;;
53483;SDS011;75581;50.088;19.966;2024-03-23T09:41:09;24.40;;;15.80;;
53483;SDS011;75581;50.088;19.966;2024-03-23T09:43:37;27.10;;;16.50;;
53483;SDS011;75581;50.088;19.966;2024-03-23T09:46:05;26.70;;;15.20;;
53483;SDS011;75581;50.088;19.966;2024-03-23T09:48:33;24.20;;;15.80;;
53483;SDS011;75581;50.088;19.966;2024-03-23T09:51:01;27.40;;;16.40;;
53483;SDS011;75581;50.088;19.966;2024-03-23T09:53:30;25.10;;;16.30;;
53483;SDS011;75581;50.088;19.966;2024-03-23T09:55:58;27.50;;;15.90;;
53483;SDS011;75581;50.088;19.966;2024-03-23T09:58:26;26.50;;;15.70;;
53483;SDS011;75581;50.088;19.966;2024-03-23T10:00:54;23.00;;;15.00;;
53483;SDS011;75581;50.088;19.966;2024-03-23T10:03:22;26.60;;;15.30;;
53483;SDS011;75581;50.088;19.966;2024-03-23T10:06:00;21.90;;;14.40;;
53483;SDS011;75581;50.088;19.966;2024-03-23T10:08:29;23.20;;;13.40;;
53483;SDS011;75581;50.088;19.966;2024-03-23T10:10:58;23.60;;;14.10;;
53483;SDS011;75581;50.088;19.966;2024-03-23T10:13:41;22.40;;;13.90;;
53483;SDS011;75581;50.088;19.966;2024-03-23T10:16:10;20.50;;;13.30;;
53483;SDS011;75581;50.088;19.966;2024-03-23T10:18:39;19.50;;;12.60;;
53483;SDS011;75581;50.088;19.966;2024-03-23T10:21:08;22.80;;;13.60;;
53483;SDS011;75581;50.088;19.966;2024-03-23T10:23:39;20.20;;;12.60;;
53483;SDS011;75581;50.088;19.966;2024-03-23T10:26:18;19.90;;;12.20;;
53483;SDS011;75581;50.088;19.966;2024-03-23T10:28:59;18.50;;;11.60;;
53483;SDS011;75581;50.088;19.966;2024-03-23T10:31:29;15.00;;;10.50;;
53483;SDS011;75581;50.088;19.966;2024-03-23T10:33:57;12.70;;;8.90;;
53483;SDS011;75581;50.088;19.966;2024-03-23T10:36:26;11.20;;;7.40;;
53483;SDS011;75581;50.088;19.966;2024-03-23T10:38:54;11.80;;;7.70;;
53483;SDS011;75581;50.088;19.966;2024-03-23T10:41:22;11.00;;;7.70;;
53483;SDS011;75581;50.088;19.966;2024-03-23T10:43:53;7.80;;;6.00;;
53483;SDS011;75581;50.088;19.966;2024-03-23T10:46:23;10.80;;;6.20;;
53483;SDS011;75581;50.088;19.966;2024-03-23T10:48:51;9.70;;;6.50;;
53483;SDS011;75581;50.088;19.966;2024-03-23T10:51:18;10.10;;;5.70;;
53483;SDS011;75581;50.088;19.966;2024-03-23T10:53:46;8.80;;;5.70;;
53483;SDS011;75581;50.088;19.966;2024-03-23T10:56:15;8.20;;;4.60;;
53483;SDS011;75581;50.088;19.966;2024-03-23T10:58:44;5.30;;;4.40;;
53483;SDS011;75581;50.088;19.966;2024-03-23T11:01:15;7.40;;;4.20;;
53483;SDS011;75581;50.088;19.966;2024-03-23T11:03:46;5.80;;;3.50;;
53483;SDS011;75581;50.088;19.966;2024-03-23T11:09:02;5.20;;;3.00;;
53483;SDS011;75581;50.088;19.966;2024-03-23T11:11:30;4.10;;;2.90;;
53483;SDS011;75581;50.088;19.966;2024-03-23T11:13:59;6.30;;;3.30;;
53483;SDS011;75581;50.088;19.966;2024-03-23T11:16:28;4.10;;;3.10;;
53483;SDS011;75581;50.088;19.966;2024-03-23T11:22:05;4.40;;;2.90;;
53483;SDS011;75581;50.088;19.966;2024-03-23T11:24:35;4.60;;;2.90;;
53483;SDS011;75581;50.088;19.966;2024-03-23T11:27:15;4.20;;;2.90;;
53483;SDS011;75581;50.088;19.966;2024-03-23T11:29:43;6.70;;;3.80;;
53483;SDS011;75581;50.088;19.966;2024-03-23T11:32:11;4.10;;;2.70;;
53483;SDS011;75581;50.088;19.966;2024-03-23T11:34:40;4.70;;;3.20;;
53483;SDS011;75581;50.088;19.966;2024-03-23T11:37:08;4.00;;;3.10;;
53483;SDS011;75581;50.088;19.966;2024-03-23T11:39:36;4.40;;;3.00;;
53483;SDS011;75581;50.088;19.966;2024-03-23T11:42:04;3.50;;;2.70;;
53483;SDS011;75581;50.088;19.966;2024-03-23T11:44:32;3.60;;;3.00;;
53483;SDS011;75581;50.088;19.966;2024-03-23T11:47:18;4.60;;;3.30;;
53483;SDS011;75581;50.088;19.966;2024-03-23T11:49:48;4.40;;;3.40;;
53483;SDS011;75581;50.088;19.966;2024-03-23T11:52:16;3.50;;;2.50;;
53483;SDS011;75581;50.088;19.966;2024-03-23T11:54:44;4.40;;;2.70;;
53483;SDS011;75581;50.088;19.966;2024-03-23T11:57:11;4.40;;;3.00;;
53483;SDS011;75581;50.088;19.966;2024-03-23T11:59:40;6.60;;;3.20;;
53483;SDS011;75581;50.088;19.966;2024-03-23T12:02:09;6.20;;;3.20;;
53483;SDS011;75581;50.088;19.966;2024-03-23T12:04:38;6.00;;;3.30;;
53483;SDS011;75581;50.088;19.966;2024-03-23T12:10:02;6.40;;;3.20;;
53483;SDS011;75581;50.088;19.966;2024-03-23T12:12:31;6.70;;;3.20;;
53483;SDS011;75581;50.088;19.966;2024-03-23T12:15:03;4.50;;;3.00;;
53483;SDS011;75581;50.088;19.966;2024-03-23T12:17:33;4.90;;;2.90;;
53483;SDS011;75581;50.088;19.966;2024-03-23T12:20:04;4.50;;;2.70;;
53483;SDS011;75581;50.088;19.966;2024-03-23T12:22:33;3.30;;;2.70;;
53483;SDS011;75581;50.088;19.966;2024-03-23T12:25:03;4.00;;;2.20;;
53483;SDS011;75581;50.088;19.966;2024-03-23T12:27:31;3.60;;;2.60;;
53483;SDS011;75581;50.088;19.966;2024-03-23T12:29:58;4.90;;;2.40;;
53483;SDS011;75581;50.088;19.966;2024-03-23T12:32:26;3.70;;;2.30;;
53483;SDS011;75581;50.088;19.966;2024-03-23T12:34:54;4.60;;;2.60;;
53483;SDS011;75581;50.088;19.966;2024-03-23T12:37:22;3.00;;;2.20;;
53483;SDS011;75581;50.088;19.966;2024-03-23T12:39:50;4.70;;;2.30;;
53483;SDS011;75581;50.088;19.966;2024-03-23T12:42:17;3.10;;;2.10;;
53483;SDS011;75581;50.088;19.966;2024-03-23T12:44:45;4.70;;;2.70;;
53483;SDS011;75581;50.088;19.966;2024-03-23T12:47:14;3.20;;;1.90;;
53483;SDS011;75581;50.088;19.966;2024-03-23T12:49:41;3.90;;;1.80;;
53483;SDS011;75581;50.088;19.966;2024-03-23T12:52:09;3.20;;;1.70;;
53483;SDS011;75581;50.088;19.966;2024-03-23T12:54:37;2.60;;;1.70;;
53483;SDS011;75581;50.088;19.966;2024-03-23T12:57:05;3.00;;;1.90;;
53483;SDS011;75581;50.088;19.966;2024-03-23T12:59:32;3.20;;;1.80;;
53483;SDS011;75581;50.088;19.966;2024-03-23T13:02:02;4.30;;;1.90;;
53483;SDS011;75581;50.088;19.966;2024-03-23T13:04:30;3.00;;;1.90;;
53483;SDS011;75581;50.088;19.966;2024-03-23T13:06:59;2.90;;;1.90;;
53483;SDS011;75581;50.088;19.966;2024-03-23T13:09:27;4.10;;;2.00;;
53483;SDS011;75581;50.088;19.966;2024-03-23T13:11:55;3.80;;;1.70;;
53483;SDS011;75581;50.088;19.966;2024-03-23T13:14:23;3.40;;;1.90;;
53483;SDS011;75581;50.088;19.966;2024-03-23T13:16:51;2.10;;;1.60;;
53483;SDS011;75581;50.088;19.966;2024-03-23T13:19:19;3.40;;;1.80;;
53483;SDS011;75581;50.088;19.966;2024-03-23T13:21:47;4.10;;;1.90;;
53483;SDS011;75581;50.088;19.966;2024-03-23T13:24:16;2.50;;;2.00;;
53483;SDS011;75581;50.088;19.966;2024-03-23T13:26:43;2.90;;;1.60;;
53483;SDS011;75581;50.088;19.966;2024-03-23T13:29:11;3.10;;;1.80;;
53483;SDS011;75581;50.088;19.966;2024-03-23T13:31:39;2.70;;;1.70;;
53483;SDS011;75581;50.088;19.966;2024-03-23T13:34:07;2.50;;;1.40;;
53483;SDS011;75581;50.088;19.966;2024-03-23T13:36:34;4.30;;;1.80;;
53483;SDS011;75581;50.088;19.966;2024-03-23T13:39:03;2.20;;;1.50;;
53483;SDS011;75581;50.088;19.966;2024-03-23T13:41:42;1.90;;;1.30;;
53483;SDS011;75581;50.088;19.966;2024-03-23T13:44:10;4.70;;;1.40;;
53483;SDS011;75581;50.088;19.966;2024-03-23T13:46:39;3.20;;;1.40;;
53483;SDS011;75581;50.088;19.966;2024-03-23T13:49:29;1.70;;;1.40;;
53483;SDS011;75581;50.088;19.966;2024-03-23T13:51:58;2.00;;;1.50;;
53483;SDS011;75581;50.088;19.966;2024-03-23T13:54:26;1.90;;;1.30;;
53483;SDS011;75581;50.088;19.966;2024-03-23T13:56:55;2.40;;;1.70;;
53483;SDS011;75581;50.088;19.966;2024-03-23T13:59:23;3.00;;;2.00;;
53483;SDS011;75581;50.088;19.966;2024-03-23T14:01:51;2.90;;;1.60;;
53483;SDS011;75581;50.088;19.966;2024-03-23T14:04:19;2.80;;;1.70;;
53483;SDS011;75581;50.088;19.966;2024-03-23T14:06:47;4.60;;;1.80;;
53483;SDS011;75581;50.088;19.966;2024-03-23T14:09:15;3.50;;;1.40;;
53483;SDS011;75581;50.088;19.966;2024-03-23T14:11:48;3.00;;;1.50;;
53483;SDS011;75581;50.088;19.966;2024-03-23T14:14:18;2.00;;;1.30;;
53483;SDS011;75581;50.088;19.966;2024-03-23T14:16:48;8.60;;;2.20;;
53483;SDS011;75581;50.088;19.966;2024-03-23T14:19:16;2.60;;;1.10;;
53483;SDS011;75581;50.088;19.966;2024-03-23T14:21:44;3.60;;;1.50;;
53483;SDS011;75581;50.088;19.966;2024-03-23T14:24:12;2.70;;;1.20;;
53483;SDS011;75581;50.088;19.966;2024-03-23T14:26:39;2.40;;;1.30;;
53483;SDS011;75581;50.088;19.966;2024-03-23T14:29:08;3.10;;;2.10;;
53483;SDS011;75581;50.088;19.966;2024-03-23T14:31:36;4.90;;;1.30;;
53483;SDS011;75581;50.088;19.966;2024-03-23T14:34:04;3.80;;;1.10;;
53483;SDS011;75581;50.088;19.966;2024-03-23T14:36:31;2.80;;;1.80;;
53483;SDS011;75581;50.088;19.966;2024-03-23T14:38:59;6.00;;;1.80;;
53483;SDS011;75581;50.088;19.966;2024-03-23T14:41:27;6.10;;;2.40;;
53483;SDS011;75581;50.088;19.966;2024-03-23T14:43:55;59.60;;;4.30;;
53483;SDS011;75581;50.088;19.966;2024-03-23T14:46:24;10.20;;;1.50;;
53483;SDS011;75581;50.088;19.966;2024-03-23T14:48:51;10.20;;;1.30;;
53483;SDS011;75581;50.088;19.966;2024-03-23T14:51:20;5.70;;;1.10;;
53483;SDS011;75581;50.088;19.966;2024-03-23T14:53:49;3.90;;;0.80;;
53483;SDS011;75581;50.088;19.966;2024-03-23T14:56:17;3.80;;;0.90;;
53483;SDS011;75581;50.088;19.966;2024-03-23T14:58:45;2.10;;;0.90;;
53483;SDS011;75581;50.088;19.966;2024-03-23T15:01:13;1.60;;;0.80;;
53483;SDS011;75581;50.088;19.966;2024-03-23T15:03:41;2.70;;;0.90;;
53483;SDS011;75581;50.088;19.966;2024-03-23T15:06:10;2.10;;;0.70;;
53483;SDS011;75581;50.088;19.966;2024-03-23T15:08:38;3.00;;;0.70;;
53483;SDS011;75581;50.088;19.966;2024-03-23T15:11:07;1.30;;;0.60;;
53483;SDS011;75581;50.088;19.966;2024-03-23T15:13:35;2.70;;;0.80;;
53483;SDS011;75581;50.088;19.966;2024-03-23T15:16:04;2.30;;;0.80;;
53483;SDS011;75581;50.088;19.966;2024-03-23T15:18:32;2.50;;;0.90;;
53483;SDS011;75581;50.088;19.966;2024-03-23T15:21:03;2.20;;;0.80;;
53483;SDS011;75581;50.088;19.966;2024-03-23T15:23:36;2.40;;;0.90;;
53483;SDS011;75581;50.088;19.966;2024-03-23T15:26:04;1.30;;;0.80;;